X  Fechar Dados meteorológicos de METAR da aviação     LEGR F.G.L. Airport Granada-Jaén Airport
Temperatura
32°C Temperatura
8°C Ponto de orvalho
22% Umidade



Vento
11 KM/H
7 MPH
3 M/S
6 NÓS



290°
ONO
Condições atuais

Parcialmente nublado Parcialmente nublado
Pressão 1018.96 (hPa) - 30.09 (inHg)
Visibilidade 6 (milha) - 9.7 (km)
Aeroporto
Código do aeroporto LEGR

Localização: F.G.L. Airport Granada-Jaén Airport
Distância: 138 (km)

Metar:
LEGR 131400Z 29006KT 240V050 9999 FEW070 32/08 Q1019

Hora: 13-06-2024 16:00 CEST